Time;durP1;ratioP1;P1;durP2;ratioP2;P2;SDS_P1;SDS_P2;PMS_P1;PMS_P2;Temp;Humidity;BMP_temperature;BMP_pressure;BME280_temperature;BME280_humidity;BME280_pressure;Samples;Min_cycle;Max_cycle;Signal;HPM_P1;HPM_P2
2022/10/01 00:01:05;;;;;;;;;;;7.70;74.30;;;;;;5071604;28;19971;-76
2022/10/01 00:03:31;;;;;;;;;;;7.70;74.30;;;;;;5072764;28;19912;-77
2022/10/01 00:06:08;;;;;;;;;;;7.60;74.30;;;;;;5046847;28;19932;-76
2022/10/01 00:08:33;;;;;;;;;;;7.60;75.10;;;;;;5057763;28;19985;-76
2022/10/01 00:11:00;;;;;;;;;;;7.60;74.40;;;;;;5038774;28;19944;-77
2022/10/01 00:13:26;;;;;;;;;;;7.60;74.40;;;;;;5072563;28;19912;-76
2022/10/01 00:15:52;;;;;;;;;;;7.60;74.40;;;;;;5056607;28;19911;-76
2022/10/01 00:18:17;;;;;;;;;;;7.60;74.50;;;;;;5088111;28;19974;-76
2022/10/01 00:20:43;;;;;;;;;;;7.60;74.50;;;;;;5038651;28;19908;-76
2022/10/01 00:23:11;;;;;;;;;;;7.50;74.40;;;;;;5055356;28;19915;-77
2022/10/01 00:25:37;;;;;;;;;;;7.50;74.50;;;;;;5055849;28;19924;-76
2022/10/01 00:28:02;;;;;;;;;;;7.50;74.50;;;;;;5059045;28;20473;-77
2022/10/01 00:30:28;;;;;;;;;;;7.50;74.50;;;;;;5042416;28;19926;-76
2022/10/01 00:32:53;;;;;;;;;;;7.50;74.50;;;;;;5072192;28;19973;-77
2022/10/01 00:35:21;;;;;;;;;;;7.50;74.50;;;;;;5052870;28;19915;-76
2022/10/01 00:37:49;;;;;;;;;;;7.50;74.60;;;;;;5054987;28;19960;-76
2022/10/01 00:40:14;;;;;;;;;;;7.40;74.50;;;;;;5058290;28;19919;-77
2022/10/01 00:42:40;;;;;;;;;;;7.40;74.50;;;;;;5046151;28;19908;-76
2022/10/01 00:45:06;;;;;;;;;;;7.40;74.60;;;;;;5058110;28;19935;-77
2022/10/01 00:47:35;;;;;;;;;;;7.40;74.60;;;;;;5037146;28;20560;-77
2022/10/01 00:50:21;;;;;;;;;;;7.40;74.70;;;;;;5044461;28;20424;-76
2022/10/01 00:52:48;;;;;;;;;;;7.30;74.60;;;;;;5042272;28;19919;-77
2022/10/01 00:55:15;;;;;;;;;;;7.30;74.60;;;;;;5040110;28;19981;-76
2022/10/01 00:57:40;;;;;;;;;;;7.30;74.70;;;;;;5069116;28;19909;-77
2022/10/01 01:00:07;;;;;;;;;;;7.30;74.70;;;;;;5076023;28;19908;-76
2022/10/01 01:02:32;;;;;;;;;;;7.30;74.70;;;;;;5075651;28;19958;-77
2022/10/01 01:04:58;;;;;;;;;;;7.30;74.70;;;;;;5040699;28;19991;-76
2022/10/01 01:07:23;;;;;;;;;;;7.30;74.70;;;;;;5076158;28;19912;-76
2022/10/01 01:09:49;;;;;;;;;;;7.20;74.70;;;;;;5076973;28;19912;-77
2022/10/01 01:12:17;;;;;;;;;;;7.20;74.70;;;;;;5044830;28;20442;-76
2022/10/01 01:14:53;;;;;;;;;;;7.20;74.80;;;;;;5073077;28;19962;-77
2022/10/01 01:17:23;;;;;;;;;;;7.20;74.80;;;;;;5043529;28;19908;-76
2022/10/01 01:19:49;;;;;;;;;;;7.10;74.30;;;;;;5056113;28;19911;-76
2022/10/01 01:22:14;;;;;;;;;;;7.10;74.80;;;;;;5076405;28;20465;-77
2022/10/01 01:24:40;;;;;;;;;;;7.10;74.80;;;;;;5076073;28;19916;-76
2022/10/01 01:27:08;;;;;;;;;;;7.10;74.80;;;;;;5058564;28;19908;-76
2022/10/01 01:29:33;;;;;;;;;;;7.10;74.80;;;;;;5059616;28;19913;-77
2022/10/01 01:32:01;;;;;;;;;;;7.10;74.80;;;;;;5074697;28;19916;-76
2022/10/01 01:34:27;;;;;;;;;;;7.10;74.90;;;;;;5055022;28;20409;-76
2022/10/01 01:36:54;;;;;;;;;;;7.10;75.00;;;;;;5057107;28;20375;-76
2022/10/01 01:39:20;;;;;;;;;;;7.00;74.90;;;;;;5056989;28;19912;-76
2022/10/01 01:41:48;;;;;;;;;;;7.00;74.90;;;;;;5061436;28;20565;-76
2022/10/01 01:44:15;;;;;;;;;;;7.00;74.90;;;;;;5076130;28;19974;-77
2022/10/01 01:46:40;;;;;;;;;;;7.00;74.90;;;;;;5077669;28;19916;-77
2022/10/01 01:49:06;;;;;;;;;;;7.00;74.90;;;;;;5056398;28;19954;-76
2022/10/01 01:51:32;;;;;;;;;;;7.00;74.90;;;;;;5059562;28;19912;-76
2022/10/01 01:53:57;;;;;;;;;;;7.00;74.90;;;;;;5064939;28;20431;-76
2022/10/01 01:56:22;;;;;;;;;;;7.00;74.90;;;;;;5059058;28;19912;-76
2022/10/01 01:58:48;;;;;;;;;;;7.00;74.90;;;;;;5079699;28;19908;-77
2022/10/01 02:01:33;;;;;;;;;;;7.00;74.90;;;;;;5040038;28;19966;-76
2022/10/01 02:03:59;;;;;;;;;;;7.00;75.00;;;;;;5073087;28;19916;-75
2022/10/01 02:06:29;;;;;;;;;;;6.90;75.00;;;;;;5044725;28;19912;-77
2022/10/01 02:08:57;;;;;;;;;;;6.90;74.90;;;;;;5072849;28;20331;-76
2022/10/01 02:11:22;;;;;;;;;;;6.90;75.00;;;;;;5054295;28;19920;-76
2022/10/01 02:13:49;;;;;;;;;;;7.00;75.00;;;;;;5073969;28;19926;-76
2022/10/01 02:16:24;;;;;;;;;;;7.00;75.10;;;;;;5089181;28;19991;-75
2022/10/01 02:19:05;;;;;;;;;;;7.00;75.10;;;;;;5079629;28;19947;-75
2022/10/01 02:21:30;;;;;;;;;;;7.00;75.20;;;;;;5071323;28;19908;-75
2022/10/01 02:24:05;;;;;;;;;;;7.00;75.10;;;;;;5084526;28;20603;-75
2022/10/01 02:26:30;;;;;;;;;;;7.00;75.00;;;;;;5060480;28;20387;-75
2022/10/01 02:28:58;;;;;;;;;;;7.00;75.00;;;;;;5078670;28;19911;-75
2022/10/01 02:31:23;;;;;;;;;;;7.00;75.10;;;;;;5064485;28;19968;-76
2022/10/01 02:33:49;;;;;;;;;;;7.00;75.10;;;;;;5048570;28;19919;-75
2022/10/01 02:36:15;;;;;;;;;;;7.00;75.10;;;;;;5084344;28;19944;-75
2022/10/01 02:38:40;;;;;;;;;;;7.00;75.10;;;;;;5064395;28;19912;-75
2022/10/01 02:41:06;;;;;;;;;;;7.00;75.10;;;;;;5064578;28;20333;-75
2022/10/01 02:43:37;;;;;;;;;;;7.00;75.10;;;;;;5070848;28;20383;-75
2022/10/01 02:46:07;;;;;;;;;;;7.00;75.10;;;;;;5052034;28;19916;-75
2022/10/01 02:48:33;;;;;;;;;;;7.00;75.10;;;;;;5066905;28;19908;-75
2022/10/01 02:51:08;;;;;;;;;;;7.10;75.20;;;;;;5050612;28;20304;-75
2022/10/01 02:53:34;;;;;;;;;;;7.00;75.10;;;;;;5100185;28;19920;-75
2022/10/01 02:56:00;;;;;;;;;;;7.00;75.10;;;;;;5067808;28;21116;-75
2022/10/01 02:58:25;;;;;;;;;;;7.10;75.20;;;;;;5064791;28;20564;-75
2022/10/01 03:00:51;;;;;;;;;;;7.10;75.20;;;;;;5066887;28;19919;-74
2022/10/01 03:03:17;;;;;;;;;;;7.10;75.20;;;;;;5083520;28;19908;-76
2022/10/01 03:05:42;;;;;;;;;;;7.10;75.20;;;;;;5083390;28;20307;-75
2022/10/01 03:08:08;;;;;;;;;;;7.10;75.10;;;;;;5068863;28;19986;-75
2022/10/01 03:10:33;;;;;;;;;;;7.20;75.20;;;;;;5084309;28;19915;-75
2022/10/01 03:13:00;;;;;;;;;;;7.20;75.20;;;;;;5085785;28;19912;-75
2022/10/01 03:15:26;;;;;;;;;;;7.20;75.10;;;;;;5080370;28;19943;-75
2022/10/01 03:17:51;;;;;;;;;;;7.20;75.10;;;;;;5066882;28;19915;-75
2022/10/01 03:20:17;;;;;;;;;;;7.30;75.20;;;;;;5069667;28;20017;-75
2022/10/01 03:22:45;;;;;;;;;;;7.30;75.10;;;;;;5068248;28;19908;-75
2022/10/01 03:25:11;;;;;;;;;;;7.30;75.10;;;;;;5083889;28;19920;-76
2022/10/01 03:27:37;;;;;;;;;;;7.40;75.20;;;;;;5082151;28;19915;-75
2022/10/01 03:30:03;;;;;;;;;;;7.40;75.20;;;;;;5062943;28;19916;-77
2022/10/01 03:32:28;;;;;;;;;;;7.50;75.20;;;;;;5069028;28;20593;-75
2022/10/01 03:34:54;;;;;;;;;;;7.50;75.20;;;;;;5084809;28;19916;-76
2022/10/01 03:37:19;;;;;;;;;;;7.60;75.30;;;;;;5085465;28;19919;-75
2022/10/01 03:39:45;;;;;;;;;;;7.60;75.20;;;;;;5065265;28;19975;-75
2022/10/01 03:42:10;;;;;;;;;;;7.60;75.10;;;;;;5088190;28;20415;-75
2022/10/01 03:44:36;;;;;;;;;;;7.70;75.10;;;;;;5055644;28;19926;-76
2022/10/01 03:47:01;;;;;;;;;;;7.70;75.10;;;;;;5078425;28;19916;-75
2022/10/01 03:49:27;;;;;;;;;;;7.70;75.10;;;;;;5063590;28;19912;-76
2022/10/01 03:51:53;;;;;;;;;;;7.70;75.00;;;;;;5070089;28;19964;-76
2022/10/01 03:54:19;;;;;;;;;;;7.70;75.00;;;;;;5086396;28;19946;-76
2022/10/01 03:56:44;;;;;;;;;;;7.70;75.00;;;;;;5081867;28;19916;-76
2022/10/01 03:59:10;;;;;;;;;;;7.70;75.00;;;;;;5062107;28;20438;-76
2022/10/01 04:01:35;;;;;;;;;;;7.80;75.00;;;;;;5083654;28;19911;-76
2022/10/01 04:04:01;;;;;;;;;;;7.80;75.10;;;;;;5060204;28;19908;-76
2022/10/01 04:06:26;;;;;;;;;;;7.80;75.00;;;;;;5063636;28;19964;-76
2022/10/01 04:08:52;;;;;;;;;;;7.90;75.10;;;;;;5088080;28;20375;-76
2022/10/01 04:11:17;;;;;;;;;;;7.90;75.00;;;;;;5084549;28;19911;-75
2022/10/01 04:13:43;;;;;;;;;;;8.00;75.10;;;;;;5063308;28;19909;-75
2022/10/01 04:16:09;;;;;;;;;;;8.00;75.10;;;;;;5066844;28;19939;-76
2022/10/01 04:18:34;;;;;;;;;;;8.00;75.10;;;;;;5066252;28;19988;-76
2022/10/01 04:21:00;;;;;;;;;;;8.10;75.10;;;;;;5087031;28;19912;-76
2022/10/01 04:23:25;;;;;;;;;;;8.10;75.00;;;;;;5087559;28;20465;-76
2022/10/01 04:25:51;;;;;;;;;;;8.20;75.10;;;;;;5083798;28;19912;-76
2022/10/01 04:28:16;;;;;;;;;;;8.20;75.00;;;;;;5086180;28;19959;-75
2022/10/01 04:30:42;;;;;;;;;;;8.20;75.00;;;;;;5088904;28;19934;-76
2022/10/01 04:33:08;;;;;;;;;;;8.30;75.00;;;;;;5088995;28;20007;-76
2022/10/01 04:35:34;;;;;;;;;;;8.30;75.00;;;;;;5069010;28;19904;-76
2022/10/01 04:38:02;;;;;;;;;;;8.30;75.00;;;;;;5088437;28;19920;-76
2022/10/01 04:40:28;;;;;;;;;;;8.40;75.00;;;;;;5087059;28;19934;-76
2022/10/01 04:42:53;;;;;;;;;;;8.40;75.00;;;;;;5086390;28;19970;-78
2022/10/01 04:45:19;;;;;;;;;;;8.40;74.90;;;;;;5076477;28;19916;-76
2022/10/01 04:47:51;;;;;;;;;;;8.40;74.90;;;;;;5106323;28;20476;-75
2022/10/01 04:50:17;;;;;;;;;;;8.50;75.00;;;;;;5043064;28;19908;-76
2022/10/01 04:52:43;;;;;;;;;;;8.50;75.00;;;;;;5083047;28;19916;-76
2022/10/01 04:55:08;;;;;;;;;;;8.60;75.00;;;;;;5059352;28;19919;-75
2022/10/01 04:57:34;;;;;;;;;;;8.60;75.00;;;;;;5076252;28;19909;-76
2022/10/01 05:00:00;;;;;;;;;;;8.60;74.90;;;;;;5062129;28;19916;-76
2022/10/01 05:02:28;;;;;;;;;;;8.60;74.90;;;;;;5059585;28;19909;-76
2022/10/01 05:04:53;;;;;;;;;;;8.70;74.90;;;;;;5080599;28;19950;-76
2022/10/01 05:07:19;;;;;;;;;;;8.70;74.90;;;;;;5079168;28;20372;-76
2022/10/01 05:09:44;;;;;;;;;;;8.70;74.90;;;;;;5079731;28;19921;-76
2022/10/01 05:12:10;;;;;;;;;;;8.80;74.90;;;;;;5062241;28;19920;-76
2022/10/01 05:14:35;;;;;;;;;;;8.80;74.90;;;;;;5079552;28;19919;-77
2022/10/01 05:17:01;;;;;;;;;;;8.90;74.90;;;;;;5078117;28;19942;-77
2022/10/01 05:19:28;;;;;;;;;;;8.90;74.90;;;;;;5058135;28;19969;-78
2022/10/01 05:21:54;;;;;;;;;;;9.00;74.90;;;;;;5076355;28;19915;-76
2022/10/01 05:24:19;;;;;;;;;;;9.00;74.90;;;;;;5077537;28;19966;-76
2022/10/01 05:26:45;;;;;;;;;;;9.00;75.00;;;;;;5079016;28;19934;-77
2022/10/01 05:29:13;;;;;;;;;;;9.10;74.80;;;;;;5084703;28;19908;-77
2022/10/01 05:31:42;;;;;;;;;;;9.10;74.80;;;;;;5091890;28;19924;-78
2022/10/01 05:34:08;;;;;;;;;;;9.10;74.80;;;;;;5070903;28;19965;-77
2022/10/01 05:36:34;;;;;;;;;;;9.10;74.80;;;;;;5071253;28;20295;-77
2022/10/01 05:38:59;;;;;;;;;;;9.20;75.60;;;;;;5076357;28;19916;-77
2022/10/01 05:41:25;;;;;;;;;;;9.20;74.80;;;;;;5043231;28;19913;-77
2022/10/01 05:43:50;;;;;;;;;;;9.20;74.80;;;;;;5072130;28;19932;-76
2022/10/01 05:46:16;;;;;;;;;;;9.30;74.80;;;;;;5056183;28;19958;-76
2022/10/01 05:48:41;;;;;;;;;;;9.30;74.80;;;;;;5053976;28;19935;-77
2022/10/01 05:51:07;;;;;;;;;;;9.30;74.80;;;;;;5062575;28;19916;-77
2022/10/01 05:53:36;;;;;;;;;;;9.30;74.70;;;;;;5088158;28;20392;-76
2022/10/01 05:56:02;;;;;;;;;;;9.30;74.70;;;;;;5082229;28;19969;-76
2022/10/01 05:58:28;;;;;;;;;;;9.40;74.80;;;;;;5037942;28;19919;-76
2022/10/01 06:00:53;;;;;;;;;;;9.40;74.80;;;;;;5071802;28;19916;-76
2022/10/01 06:03:19;;;;;;;;;;;9.30;74.70;;;;;;5052460;28;19912;-76
2022/10/01 06:05:45;;;;;;;;;;;9.40;74.80;;;;;;5067600;28;19939;-76
2022/10/01 06:08:10;;;;;;;;;;;9.40;74.80;;;;;;5068810;28;20391;-76
2022/10/01 06:10:36;;;;;;;;;;;9.40;75.60;;;;;;5068328;28;19909;-76
2022/10/01 06:13:01;;;;;;;;;;;9.40;74.70;;;;;;5052040;28;19912;-73
2022/10/01 06:15:27;;;;;;;;;;;9.40;74.70;;;;;;5065269;28;19919;-76
2022/10/01 06:17:53;;;;;;;;;;;9.50;74.80;;;;;;5059196;28;19912;-76
2022/10/01 06:20:19;;;;;;;;;;;9.50;74.70;;;;;;5056760;28;19912;-75
2022/10/01 06:22:52;;;;;;;;;;;9.50;74.80;;;;;;5074657;28;20691;-75
2022/10/01 06:25:17;;;;;;;;;;;9.50;74.80;;;;;;5086101;28;19923;-75
2022/10/01 06:27:43;;;;;;;;;;;9.60;74.80;;;;;;5088710;28;19908;-75
2022/10/01 06:30:09;;;;;;;;;;;9.50;74.70;;;;;;5087792;28;19939;-75
2022/10/01 06:32:34;;;;;;;;;;;9.60;74.80;;;;;;5064411;28;19947;-76
2022/10/01 06:35:00;;;;;;;;;;;9.60;74.80;;;;;;5082483;28;19912;-76
2022/10/01 06:37:25;;;;;;;;;;;9.60;74.80;;;;;;5085375;28;19920;-75
2022/10/01 06:39:50;;;;;;;;;;;9.60;74.70;;;;;;5067598;28;19923;-75
2022/10/01 06:42:16;;;;;;;;;;;9.60;74.70;;;;;;5070334;28;19935;-75
2022/10/01 06:44:41;;;;;;;;;;;9.70;74.80;;;;;;5071516;28;19981;-75
2022/10/01 06:47:07;;;;;;;;;;;9.70;74.80;;;;;;5085175;28;19916;-75
2022/10/01 06:49:33;;;;;;;;;;;9.70;74.80;;;;;;5064060;28;19916;-75
2022/10/01 06:54:42;;;;;;;;;;;9.70;74.80;;;;;;5072826;28;19919;-75
2022/10/01 06:57:08;;;;;;;;;;;9.70;74.80;;;;;;5084528;28;19913;-75
2022/10/01 06:59:35;;;;;;;;;;;9.80;74.80;;;;;;5070158;28;19912;-76
2022/10/01 07:02:02;;;;;;;;;;;9.80;74.80;;;;;;5084749;28;20424;-75
2022/10/01 07:04:27;;;;;;;;;;;9.80;74.80;;;;;;5091492;28;19999;-76
2022/10/01 07:06:54;;;;;;;;;;;9.80;74.80;;;;;;5089158;28;19977;-76
2022/10/01 07:09:22;;;;;;;;;;;9.90;74.80;;;;;;5106504;28;19923;-75
2022/10/01 07:11:48;;;;;;;;;;;9.90;74.80;;;;;;5066326;28;19927;-75
2022/10/01 07:14:13;;;;;;;;;;;9.90;74.80;;;;;;5074735;28;19913;-75
2022/10/01 07:16:39;;;;;;;;;;;9.90;74.80;;;;;;5088286;28;19909;-75
2022/10/01 07:19:04;;;;;;;;;;;9.90;74.80;;;;;;5085212;28;19923;-74
2022/10/01 07:21:30;;;;;;;;;;;9.90;74.70;;;;;;5084379;28;19919;-75
2022/10/01 07:23:55;;;;;;;;;;;10.00;74.80;;;;;;5087963;28;19913;-75
2022/10/01 07:26:21;;;;;;;;;;;10.00;74.70;;;;;;5087697;28;19938;-75
2022/10/01 07:28:46;;;;;;;;;;;10.00;74.80;;;;;;5089975;28;19922;-75
2022/10/01 07:31:12;;;;;;;;;;;10.00;74.70;;;;;;5086576;28;19920;-74
2022/10/01 07:33:38;;;;;;;;;;;10.00;74.70;;;;;;5085579;28;19912;-75
2022/10/01 07:36:04;;;;;;;;;;;10.00;74.70;;;;;;5071566;28;19934;-75
2022/10/01 07:38:29;;;;;;;;;;;10.10;74.80;;;;;;5087401;28;19912;-75
2022/10/01 07:40:57;;;;;;;;;;;10.10;74.80;;;;;;5057058;28;19938;-75
2022/10/01 07:43:22;;;;;;;;;;;10.10;74.80;;;;;;5085610;28;19916;-75
2022/10/01 07:45:53;;;;;;;;;;;10.10;74.80;;;;;;5089074;28;19922;-75
2022/10/01 07:48:19;;;;;;;;;;;10.10;74.80;;;;;;5065304;28;19912;-75
2022/10/01 07:50:44;;;;;;;;;;;10.20;74.80;;;;;;5085764;28;19966;-75
2022/10/01 07:53:10;;;;;;;;;;;10.20;74.80;;;;;;5084678;28;19917;-75
2022/10/01 07:55:35;;;;;;;;;;;10.20;74.80;;;;;;5051665;28;19908;-75
2022/10/01 07:58:01;;;;;;;;;;;10.20;74.80;;;;;;5066006;28;20271;-75
2022/10/01 08:00:27;;;;;;;;;;;10.20;74.80;;;;;;5088056;28;19954;-76
2022/10/01 08:02:54;;;;;;;;;;;10.20;74.80;;;;;;5064292;28;19965;-76
2022/10/01 08:05:21;;;;;;;;;;;10.20;74.80;;;;;;5068556;28;19904;-76
2022/10/01 08:07:46;;;;;;;;;;;10.30;74.80;;;;;;5079646;28;19912;-76
2022/10/01 08:10:12;;;;;;;;;;;10.30;74.80;;;;;;5074338;28;19968;-76
2022/10/01 08:12:38;;;;;;;;;;;10.30;74.80;;;;;;5074275;28;19928;-76
2022/10/01 08:15:09;;;;;;;;;;;10.30;74.80;;;;;;5073826;28;19923;-75
2022/10/01 08:17:34;;;;;;;;;;;10.30;74.80;;;;;;5090084;28;19927;-75
2022/10/01 08:20:00;;;;;;;;;;;10.40;74.80;;;;;;5088605;28;19920;-75
2022/10/01 08:22:25;;;;;;;;;;;10.40;74.80;;;;;;5107812;28;19975;-75
2022/10/01 08:24:51;;;;;;;;;;;10.40;74.80;;;;;;5060120;28;19912;-76
2022/10/01 08:27:17;;;;;;;;;;;10.50;74.80;;;;;;5093895;28;19912;-77
2022/10/01 08:29:42;;;;;;;;;;;10.50;74.90;;;;;;5088159;28;19940;-75
2022/10/01 08:32:09;;;;;;;;;;;10.50;74.80;;;;;;5058125;28;19917;-75
2022/10/01 08:34:34;;;;;;;;;;;10.50;74.80;;;;;;5085880;28;19915;-75
2022/10/01 08:37:00;;;;;;;;;;;10.50;74.80;;;;;;5091486;28;19913;-76
2022/10/01 08:39:25;;;;;;;;;;;10.60;74.80;;;;;;5086298;28;19923;-75
2022/10/01 08:41:57;;;;;;;;;;;10.60;74.80;;;;;;5104483;28;19979;-77
2022/10/01 08:44:26;;;;;;;;;;;10.60;74.90;;;;;;5084102;28;19928;-76
2022/10/01 08:46:53;;;;;;;;;;;10.60;74.80;;;;;;5070469;28;19933;-76
2022/10/01 08:49:20;;;;;;;;;;;10.60;74.80;;;;;;5071480;28;19912;-76
2022/10/01 08:51:45;;;;;;;;;;;10.70;74.90;;;;;;5053884;28;19931;-77
2022/10/01 08:54:14;;;;;;;;;;;10.70;74.90;;;;;;5077619;28;19908;-78
2022/10/01 08:56:43;;;;;;;;;;;10.70;74.80;;;;;;5064456;28;19917;-75
2022/10/01 08:59:40;;;;;;;;;;;10.80;74.80;;;;;;5083117;28;19923;-76
2022/10/01 09:02:32;;;;;;;;;;;10.80;74.80;;;;;;5039430;28;19912;-76
2022/10/01 09:04:58;;;;;;;;;;;10.80;74.80;;;;;;5079139;28;19919;-75
2022/10/01 09:07:36;;;;;;;;;;;10.90;74.80;;;;;;5072829;28;19939;-75
2022/10/01 09:10:26;;;;;;;;;;;10.90;74.80;;;;;;5091477;28;19908;-75
2022/10/01 09:13:03;;;;;;;;;;;10.90;74.80;;;;;;5093945;28;19916;-75
2022/10/01 09:15:47;;;;;;;;;;;10.90;74.70;;;;;;5069599;28;19925;-75
2022/10/01 09:18:24;;;;;;;;;;;11.00;74.80;;;;;;5088523;28;19919;-75
2022/10/01 09:20:52;;;;;;;;;;;11.00;74.80;;;;;;5062902;28;19939;-75
2022/10/01 09:23:20;;;;;;;;;;;11.00;74.70;;;;;;5097695;28;19920;-75
2022/10/01 09:25:49;;;;;;;;;;;11.00;74.70;;;;;;5087106;28;19908;-75
2022/10/01 09:28:18;;;;;;;;;;;11.00;74.70;;;;;;5090872;28;19915;-75
2022/10/01 09:30:46;;;;;;;;;;;11.10;74.80;;;;;;5087934;28;19915;-75
2022/10/01 09:33:16;;;;;;;;;;;11.10;74.80;;;;;;5085473;28;19913;-75
2022/10/01 09:35:43;;;;;;;;;;;11.00;74.70;;;;;;5068817;28;19963;-75
2022/10/01 09:38:11;;;;;;;;;;;11.10;74.80;;;;;;5068753;28;19908;-75
2022/10/01 09:40:45;;;;;;;;;;;11.10;74.80;;;;;;5067295;28;19915;-75
2022/10/01 09:43:11;;;;;;;;;;;11.10;74.80;;;;;;5098848;28;19924;-75
2022/10/01 09:45:36;;;;;;;;;;;11.10;74.80;;;;;;5067157;28;19969;-74
2022/10/01 09:48:03;;;;;;;;;;;11.20;74.80;;;;;;5085551;28;19904;-75
2022/10/01 09:50:33;;;;;;;;;;;11.20;74.80;;;;;;5089807;28;19916;-75
2022/10/01 09:52:59;;;;;;;;;;;11.20;74.80;;;;;;5074724;28;20437;-75
2022/10/01 09:55:33;;;;;;;;;;;11.20;74.80;;;;;;5067814;28;20433;-75
2022/10/01 09:58:03;;;;;;;;;;;11.20;74.80;;;;;;5071855;28;19908;-75
2022/10/01 10:00:28;;;;;;;;;;;11.30;74.80;;;;;;5075341;28;19911;-75
2022/10/01 10:02:54;;;;;;;;;;;11.30;74.80;;;;;;5069268;28;19916;-75
2022/10/01 10:05:23;;;;;;;;;;;11.30;74.80;;;;;;5055200;28;19994;-75
2022/10/01 10:07:59;;;;;;;;;;;11.30;74.80;;;;;;5056552;28;19944;-75
2022/10/01 10:10:25;;;;;;;;;;;11.30;74.80;;;;;;5068819;28;20320;-75
2022/10/01 10:13:01;;;;;;;;;;;11.40;74.80;;;;;;5072499;28;20758;-75
2022/10/01 10:15:26;;;;;;;;;;;11.40;74.80;;;;;;5072639;28;19912;-75
2022/10/01 10:17:52;;;;;;;;;;;11.40;74.80;;;;;;5060722;28;19942;-74
2022/10/01 10:20:38;;;;;;;;;;;11.50;74.80;;;;;;5077908;28;19945;-76
2022/10/01 10:23:07;;;;;;;;;;;11.50;74.80;;;;;;5087680;28;19916;-75
2022/10/01 10:25:33;;;;;;;;;;;11.60;74.80;;;;;;5085480;28;19916;-76
2022/10/01 10:28:00;;;;;;;;;;;11.60;74.70;;;;;;5079815;28;19954;-76
2022/10/01 10:30:26;;;;;;;;;;;11.70;74.70;;;;;;5087526;28;19998;-75
2022/10/01 10:32:52;;;;;;;;;;;11.70;74.70;;;;;;5084065;28;19950;-75
2022/10/01 10:35:24;;;;;;;;;;;11.80;74.70;;;;;;5070413;28;19962;-76
2022/10/01 10:37:51;;;;;;;;;;;11.80;74.70;;;;;;5075622;28;19930;-76
2022/10/01 10:40:40;;;;;;;;;;;11.80;74.60;;;;;;5106136;28;19908;-75
2022/10/01 10:43:14;;;;;;;;;;;11.90;74.60;;;;;;5073687;28;19908;-76
2022/10/01 10:45:41;;;;;;;;;;;11.90;74.60;;;;;;5070249;28;19959;-76
2022/10/01 10:48:06;;;;;;;;;;;11.90;74.50;;;;;;5068301;28;19916;-76
2022/10/01 10:50:34;;;;;;;;;;;12.00;74.50;;;;;;5068842;28;19915;-76
2022/10/01 10:53:11;;;;;;;;;;;12.00;74.50;;;;;;5076000;28;19943;-76
2022/10/01 10:55:37;;;;;;;;;;;12.10;74.60;;;;;;5075811;28;19912;-75
2022/10/01 10:58:16;;;;;;;;;;;12.10;74.60;;;;;;5075719;28;20041;-76
2022/10/01 11:00:43;;;;;;;;;;;12.10;75.30;;;;;;5091813;28;19909;-76
2022/10/01 11:03:12;;;;;;;;;;;12.20;74.60;;;;;;5068861;28;19908;-77
2022/10/01 11:05:40;;;;;;;;;;;12.20;74.60;;;;;;5076376;28;19946;-75
2022/10/01 11:08:06;;;;;;;;;;;12.30;74.50;;;;;;5067534;28;19987;-78
2022/10/01 11:10:41;;;;;;;;;;;12.30;74.50;;;;;;5090986;28;20395;-75
2022/10/01 11:13:25;;;;;;;;;;;12.40;74.50;;;;;;5058677;28;19919;-75
2022/10/01 11:15:50;;;;;;;;;;;12.40;74.40;;;;;;5064268;28;19971;-76
2022/10/01 11:18:22;;;;;;;;;;;12.50;74.40;;;;;;5086403;28;20364;-76
2022/10/01 11:20:59;;;;;;;;;;;12.60;74.40;;;;;;5069382;28;20366;-76
2022/10/01 11:23:44;;;;;;;;;;;12.60;74.40;;;;;;5081328;28;19916;-77
2022/10/01 11:26:18;;;;;;;;;;;12.70;74.40;;;;;;5053199;28;19923;-76
2022/10/01 11:28:44;;;;;;;;;;;12.80;74.40;;;;;;5054402;28;19908;-77
2022/10/01 11:31:21;;;;;;;;;;;12.80;74.40;;;;;;5077049;28;20557;-78
2022/10/01 11:33:53;;;;;;;;;;;12.90;74.30;;;;;;5043536;28;19912;-78
2022/10/01 11:36:31;;;;;;;;;;;13.10;74.30;;;;;;5055818;28;19916;-78
2022/10/01 11:38:56;;;;;;;;;;;13.20;74.20;;;;;;5067961;28;19954;-77
2022/10/01 11:41:29;;;;;;;;;;;13.40;74.20;;;;;;5068831;28;19923;-76
2022/10/01 11:43:59;;;;;;;;;;;13.50;74.00;;;;;;5056429;28;19927;-78
2022/10/01 11:46:31;;;;;;;;;;;13.60;73.80;;;;;;5043390;28;19916;-75
2022/10/01 11:49:14;;;;;;;;;;;13.70;73.70;;;;;;5071531;28;19939;-75
2022/10/01 11:51:43;;;;;;;;;;;13.90;73.70;;;;;;5060370;28;20426;-75
2022/10/01 11:54:10;;;;;;;;;;;14.00;73.60;;;;;;5070596;28;20361;-77
2022/10/01 11:59:28;;;;;;;;;;;14.10;73.40;;;;;;5059341;28;19969;-78
2022/10/01 12:01:56;;;;;;;;;;;14.20;73.40;;;;;;5061306;28;19924;-77
2022/10/01 12:04:21;;;;;;;;;;;14.20;73.30;;;;;;5069967;28;19915;-78
2022/10/01 12:06:56;;;;;;;;;;;14.20;73.30;;;;;;5071456;28;19942;-74
2022/10/01 12:09:25;;;;;;;;;;;14.30;73.30;;;;;;5070416;28;19941;-77
2022/10/01 12:11:56;;;;;;;;;;;14.30;74.10;;;;;;5087269;28;19917;-77
2022/10/01 12:14:25;;;;;;;;;;;14.30;73.20;;;;;;5055027;28;21771;-77
2022/10/01 12:16:55;;;;;;;;;;;14.40;73.20;;;;;;5054479;28;19954;-77
2022/10/01 12:19:21;;;;;;;;;;;14.40;73.20;;;;;;5073017;28;20073;-78
2022/10/01 12:21:56;;;;;;;;;;;14.40;73.20;;;;;;5072053;28;19912;-77
2022/10/01 12:24:33;;;;;;;;;;;14.40;73.20;;;;;;5041468;28;19912;-78
2022/10/01 12:27:05;;;;;;;;;;;14.50;73.20;;;;;;5090791;28;19937;-78
2022/10/01 12:29:34;;;;;;;;;;;14.50;73.20;;;;;;5077851;28;19912;-78
2022/10/01 12:32:12;;;;;;;;;;;14.40;73.20;;;;;;5087778;28;20371;-78
2022/10/01 12:34:40;;;;;;;;;;;14.50;73.20;;;;;;5055518;28;19912;-77
2022/10/01 12:37:26;;;;;;;;;;;14.40;73.20;;;;;;5060731;28;19908;-77
2022/10/01 12:40:02;;;;;;;;;;;14.40;73.20;;;;;;5056418;28;19916;-78
2022/10/01 12:42:47;;;;;;;;;;;14.40;73.30;;;;;;5058676;28;19912;-77
2022/10/01 12:45:12;;;;;;;;;;;14.50;73.30;;;;;;5077501;28;19971;-78
2022/10/01 12:47:41;;;;;;;;;;;14.50;73.20;;;;;;5079688;28;19981;-77
2022/10/01 12:50:14;;;;;;;;;;;14.50;73.20;;;;;;5088536;28;19963;-78
2022/10/01 12:52:45;;;;;;;;;;;14.60;73.30;;;;;;5063224;28;19929;-77
2022/10/01 12:55:28;;;;;;;;;;;14.60;73.30;;;;;;5092232;28;20011;-78
2022/10/01 12:58:02;;;;;;;;;;;14.60;73.20;;;;;;5080377;28;19920;-78
2022/10/01 13:00:34;;;;;;;;;;;14.60;73.30;;;;;;5092750;28;20148;-79
2022/10/01 13:03:22;;;;;;;;;;;14.60;73.30;;;;;;5061364;28;19917;-77
2022/10/01 13:05:54;;;;;;;;;;;14.70;73.40;;;;;;5038660;28;19920;-78
2022/10/01 13:08:19;;;;;;;;;;;14.70;73.40;;;;;;5094405;28;19970;-79
2022/10/01 13:11:05;;;;;;;;;;;14.90;73.50;;;;;;5081251;28;20384;-78
2022/10/01 13:13:34;;;;;;;;;;;15.10;73.30;;;;;;5082098;28;20011;-77
2022/10/01 13:16:15;;;;;;;;;;;15.20;73.00;;;;;;5075762;28;19926;-77
2022/10/01 13:18:50;;;;;;;;;;;15.30;73.00;;;;;;5094015;28;19927;-79
2022/10/01 13:21:21;;;;;;;;;;;15.50;72.90;;;;;;5080805;28;20045;-78
2022/10/01 13:23:56;;;;;;;;;;;15.60;72.70;;;;;;5078486;28;19972;-79
2022/10/01 13:26:27;;;;;;;;;;;15.70;72.60;;;;;;5088940;28;19920;-77
2022/10/01 13:29:04;;;;;;;;;;;15.70;72.50;;;;;;5094191;28;19915;-78
2022/10/01 13:31:33;;;;;;;;;;;15.70;72.40;;;;;;5080095;28;20375;-76
2022/10/01 13:34:00;;;;;;;;;;;15.80;72.40;;;;;;5083248;28;20380;-78
2022/10/01 13:36:28;;;;;;;;;;;15.80;72.30;;;;;;5076366;28;19935;-80
2022/10/01 13:38:54;;;;;;;;;;;15.80;72.20;;;;;;5095614;28;20465;-79
2022/10/01 13:41:20;;;;;;;;;;;15.80;72.30;;;;;;5062048;28;19970;-77
2022/10/01 13:43:57;;;;;;;;;;;15.80;72.30;;;;;;5073884;28;20018;-78
2022/10/01 13:46:23;;;;;;;;;;;15.80;72.40;;;;;;5076846;28;19920;-79
2022/10/01 13:48:49;;;;;;;;;;;15.70;72.30;;;;;;5096016;28;19947;-77
2022/10/01 13:51:14;;;;;;;;;;;15.70;72.30;;;;;;5087465;28;19916;-77
2022/10/01 13:53:40;;;;;;;;;;;15.70;72.30;;;;;;5081214;28;19951;-76
2022/10/01 13:56:05;;;;;;;;;;;15.70;72.40;;;;;;5083066;28;20396;-78
2022/10/01 13:58:38;;;;;;;;;;;15.70;72.40;;;;;;5078364;28;19928;-76
2022/10/01 14:01:05;;;;;;;;;;;15.70;72.40;;;;;;5077672;28;19917;-77
2022/10/01 14:03:32;;;;;;;;;;;15.70;72.40;;;;;;5065154;28;20501;-79
2022/10/01 14:05:57;;;;;;;;;;;15.70;72.50;;;;;;5078699;28;20332;-78
2022/10/01 14:08:26;;;;;;;;;;;15.70;72.50;;;;;;5092571;28;19918;-76
2022/10/01 14:16:34;;;;;;;;;;;15.70;72.60;;;;;;5075231;28;19942;-78
2022/10/01 14:18:59;;;;;;;;;;;15.70;72.50;;;;;;5057121;28;20569;-78
2022/10/01 14:21:28;;;;;;;;;;;15.70;72.50;;;;;;5075964;28;19966;-77
2022/10/01 14:23:57;;;;;;;;;;;15.70;72.50;;;;;;5077447;28;19912;-76
2022/10/01 14:26:25;;;;;;;;;;;15.70;72.50;;;;;;5086036;28;19926;-77
2022/10/01 14:29:00;;;;;;;;;;;15.70;72.50;;;;;;5075855;28;20363;-76
2022/10/01 14:31:45;;;;;;;;;;;15.70;72.50;;;;;;5078309;28;19923;-79
2022/10/01 14:34:29;;;;;;;;;;;15.70;72.50;;;;;;5058036;28;20025;-78
2022/10/01 14:36:55;;;;;;;;;;;15.70;72.50;;;;;;5073916;28;20368;-79
2022/10/01 14:39:21;;;;;;;;;;;15.70;72.50;;;;;;5072698;28;19919;-78
2022/10/01 14:41:48;;;;;;;;;;;15.70;72.50;;;;;;5058508;28;19919;-77